Valtellina — ICKF — position and weather

sailwx.info

Track history (hours):
 
Tides and Currents Weather Stations Pressure Air Temp Water Temp Dewpoint Dewpoint Depression Visibility Wind Speed Wind Dir Waves Ship Positions

Valtellina

Last reported at 2017-Mar-28 03:32 UTC. Time now 2017-Mar-28 04:25 UTC.
Position N 44°23' E 008°51'.

Length 184 m; draft 10.9 m.

Type: Ship (hazmat cat B). MMSI: 247243900.

Date/timePositionNaut miles runAvg speedWind from/ knotsBaromVisibWave heightAir tempDewpointWater temp
2017-Mar-28 03:32N 44°23' E 008°51'0 0.0
2017-Mar-28 02:32N 44°23' E 008°51'0 0.0
2017-Mar-28 01:32N 44°23' E 008°51'0 0.0
2017-Mar-28 00:32N 44°23' E 008°51'0 0.0
2017-Mar-27 23:32N 44°23' E 008°51'0 0.0
2017-Mar-27 22:32N 44°23' E 008°51'0 0.0
2017-Mar-27 21:32N 44°23' E 008°51'0 0.0
2017-Mar-27 20:32N 44°23' E 008°51'0 0.0
2017-Mar-27 19:32N 44°23' E 008°51'0 0.0
2017-Mar-27 18:23N 44°23' E 008°51'0 0.0
2017-Mar-27 17:32N 44°23' E 008°51'0 0.0
2017-Mar-27 16:29N 44°23' E 008°51'0 0.0
2017-Mar-27 15:32N 44°23' E 008°51'0 0.0
2017-Mar-27 14:32N 44°23' E 008°51'0 0.0
2017-Mar-27 13:32N 44°23' E 008°51'0 0.0
2017-Mar-27 12:32N 44°23' E 008°51'0 0.0
2017-Mar-27 11:32N 44°23' E 008°51'0 0.0
2017-Mar-27 10:33N 44°23' E 008°51'0 0.0
2017-Mar-27 09:33N 44°23' E 008°51'0 0.0
2017-Mar-27 08:33N 44°23' E 008°51'0 0.0
2017-Mar-27 07:34N 44°23' E 008°51'0 0.0
2017-Mar-27 06:34N 44°23' E 008°51'0 0.0
2017-Mar-27 05:33N 44°23' E 008°51'0 0.0
2017-Mar-27 04:34N 44°23' E 008°51'0 0.0
2017-Mar-27 03:34N 44°23' E 008°51'0 0.0
2017-Mar-27 02:34N 44°23' E 008°51'0 0.0
2017-Mar-27 01:34N 44°23' E 008°51'0 0.0
2017-Mar-27 00:34N 44°23' E 008°51'0 0.0
2017-Mar-26 23:33N 44°23' E 008°51'2 2.3
2017-Mar-26 22:34N 44°21' E 008°51'1110.8
2017-Mar-26 21:33N 44°10' E 008°52'1313.0
2017-Mar-26 20:33N 43°58' E 008°57'1312.7
2017-Mar-26 19:34N 43°46' E 009°03'1212.4
2017-Mar-26 18:34N 43°36' E 009°13'1212.3
2017-Mar-26 17:34N 43°25' E 009°22'1211.8
2017-Mar-26 16:34N 43°15' E 009°30'1211.6
2017-Mar-26 15:33N 43°05' E 009°38'2512.4
2017-Mar-26 13:31N 42°41' E 009°48'25412.1
2017-Mar-25 16:29N 39°41' E 013°47'1612.2
2017-Mar-25 15:10N 39°31' E 014°03'7612.6
2017-Mar-25 09:04N 38°39' E 015°16'712.2
2017-Mar-25 08:32N 38°35' E 015°22'1212.6
2017-Mar-25 07:33N 38°27' E 015°34'1211.8
2017-Mar-25 06:33N 38°16' E 015°42'10 9.7
2017-Mar-25 05:34N 38°08' E 015°36'1211.6
2017-Mar-25 04:33N 37°56' E 015°35'1010.4
2017-Mar-25 03:33N 37°49' E 015°45'1212.5
2017-Mar-25 02:33N 37°46' E 016°01'1312.5
2017-Mar-25 01:29N 37°42' E 016°17'8612.3
2017-Mar-24 18:28N 37°19' E 018°02'27110.1
2017-Mar-23 15:33N 37°33' E 023°42'1212.0
2017-Mar-23 14:34N 37°45' E 023°39'1111.0
2017-Mar-23 13:34N 37°50' E 023°27'1312.5
2017-Mar-23 12:33N 37°53' E 023°11'5 0.1
2017-Mar-21 23:23N 37°55' E 023°05'1 1.2
2017-Mar-21 22:33N 37°54' E 023°04'0 0.0
2017-Mar-21 21:28N 37°54' E 023°04'0 0.0
2017-Mar-21 18:31N 37°54' E 023°04'0 0.0
2017-Mar-21 17:16N 37°54' E 023°04'0 0.0
2017-Mar-21 16:28N 37°54' E 023°04'0 0.0
2017-Mar-21 15:28N 37°54' E 023°04'0 0.0
2017-Mar-21 14:31N 37°54' E 023°04'0 0.0
2017-Mar-21 13:28N 37°54' E 023°04'0 0.0
2017-Mar-21 12:31N 37°54' E 023°04'0 0.0
2017-Mar-21 11:31N 37°54' E 023°04'0 0.0
2017-Mar-21 10:31N 37°54' E 023°04'0 0.0
2017-Mar-21 09:31N 37°54' E 023°04'0 0.0
2017-Mar-21 08:31N 37°54' E 023°04'0 0.2
2017-Mar-21 07:33N 37°54' E 023°04'0 0.0
2017-Mar-21 06:22N 37°54' E 023°04'0 0.1
2017-Mar-21 05:27N 37°54' E 023°04'0 0.0
2017-Mar-21 04:27N 37°54' E 023°04'0 0.0
2017-Mar-21 03:06N 37°54' E 023°04'0 0.0
2017-Mar-21 02:27N 37°54' E 023°04'0 0.0
2017-Mar-21 01:28N 37°54' E 023°04'0 0.0
2017-Mar-21 00:31N 37°54' E 023°04'0 0.0
2017-Mar-20 23:33N 37°54' E 023°04'0 0.0
2017-Mar-20 22:33N 37°54' E 023°04'0 0.0
2017-Mar-20 21:18N 37°54' E 023°04'0 0.1
2017-Mar-20 20:30N 37°54' E 023°04'0 0.0
2017-Mar-20 19:33N 37°54' E 023°04'0 0.1
2017-Mar-20 18:31N 37°54' E 023°04'0 0.0
2017-Mar-20 17:27N 37°54' E 023°04'0 0.1
2017-Mar-20 16:30N 37°54' E 023°04'0 0.1
2017-Mar-20 15:30N 37°54' E 023°04'0 0.1
2017-Mar-20 14:28N 37°54' E 023°04'0 0.0
2017-Mar-20 12:26N 37°54' E 023°04'0 0.0
2017-Mar-20 11:16N 37°54' E 023°04'0 0.0
2017-Mar-20 10:27N 37°54' E 023°04'0 0.0
2017-Mar-20 08:22N 37°54' E 023°04'0 0.0
2017-Mar-20 07:24N 37°54' E 023°04'0 0.0
2017-Mar-20 06:33N 37°54' E 023°04'0 0.0
2017-Mar-20 05:08N 37°54' E 023°04'0 0.1
2017-Mar-20 04:31N 37°54' E 023°04'0 0.0
2017-Mar-20 03:31N 37°54' E 023°04'0 0.1
2017-Mar-20 02:31N 37°54' E 023°04'0 0.0
2017-Mar-20 01:31N 37°54' E 023°04'0 0.1
2017-Mar-20 00:31N 37°54' E 023°04'0 0.1
2017-Mar-19 23:28N 37°54' E 023°04'0 0.1
2017-Mar-19 22:31N 37°54' E 023°04'0 0.0
2017-Mar-19 21:31N 37°54' E 023°04'0 0.0
2017-Mar-19 20:31N 37°54' E 023°04'0 0.0
2017-Mar-19 19:26N 37°54' E 023°04'0 0.1
2017-Mar-19 18:31N 37°54' E 023°04'0 0.1
2017-Mar-19 17:31N 37°54' E 023°04'0 0.0
2017-Mar-19 16:31N 37°54' E 023°04'0 0.0
2017-Mar-19 15:31N 37°54' E 023°04'0 0.0
2017-Mar-19 14:28N 37°54' E 023°04'0 0.1
2017-Mar-19 13:31N 37°54' E 023°04'0 0.0
2017-Mar-19 12:31N 37°54' E 023°04'0 0.0
2017-Mar-19 11:31N 37°54' E 023°04'0 0.0
2017-Mar-19 10:32N 37°54' E 023°04'0 0.0
2017-Mar-19 09:33N 37°54' E 023°04'0 0.0
2017-Mar-19 08:33N 37°54' E 023°04'0 0.0
2017-Mar-19 07:28N 37°54' E 023°04'0 0.1
2017-Mar-19 06:31N 37°54' E 023°04'0 0.0
2017-Mar-19 05:19N 37°54' E 023°04'0 0.1
2017-Mar-19 04:28N 37°54' E 023°04'0 0.0
2017-Mar-19 03:25N 37°54' E 023°04'0 0.0
2017-Mar-19 02:25N 37°54' E 023°04'0 0.0
2017-Mar-19 01:31N 37°54' E 023°04'0 0.0
2017-Mar-19 00:28N 37°54' E 023°04'0 0.0
2017-Mar-18 23:28N 37°54' E 023°04'0 0.0
2017-Mar-18 22:31N 37°54' E 023°04'0 0.0
2017-Mar-18 21:31N 37°54' E 023°04'0 0.0
2017-Mar-18 20:31N 37°54' E 023°04'0 0.1
2017-Mar-18 19:31N 37°54' E 023°04'0 0.1
2017-Mar-18 18:31N 37°54' E 023°04'0 0.0
2017-Mar-18 17:19N 37°54' E 023°04'0 0.0
2017-Mar-18 16:31N 37°54' E 023°04'0 0.0
2017-Mar-18 15:28N 37°54' E 023°04'0 0.0
2017-Mar-18 07:25N 37°54' E 023°04'0 0.0
2017-Mar-18 05:31N 37°54' E 023°04'0 0.0
2017-Mar-18 04:31N 37°54' E 023°04'  
Track history (hours):
 
Tides and Currents Weather Stations Pressure Air Temp Water Temp Dewpoint Dewpoint Depression Visibility Wind Speed Wind Dir Waves Ship Positions

Valtellina

Last reported at 2017-Mar-28 03:32 UTC. Time now 2017-Mar-28 04:25 UTC.
Position N 44°23' E 008°51'.

Length 184 m; draft 10.9 m.

Type: Ship (hazmat cat B). MMSI: 247243900.

Date/timePositionNaut miles runAvg speedWind from/ knotsBaromVisibWave heightAir tempDewpointWater temp
2017-Mar-28 03:32N 44°23' E 008°51'0 0.0
2017-Mar-28 02:32N 44°23' E 008°51'0 0.0
2017-Mar-28 01:32N 44°23' E 008°51'0 0.0
2017-Mar-28 00:32N 44°23' E 008°51'0 0.0
2017-Mar-27 23:32N 44°23' E 008°51'0 0.0
2017-Mar-27 22:32N 44°23' E 008°51'0 0.0
2017-Mar-27 21:32N 44°23' E 008°51'0 0.0
2017-Mar-27 20:32N 44°23' E 008°51'0 0.0
2017-Mar-27 19:32N 44°23' E 008°51'0 0.0
2017-Mar-27 18:23N 44°23' E 008°51'0 0.0
2017-Mar-27 17:32N 44°23' E 008°51'0 0.0
2017-Mar-27 16:29N 44°23' E 008°51'0 0.0
2017-Mar-27 15:32N 44°23' E 008°51'0 0.0
2017-Mar-27 14:32N 44°23' E 008°51'0 0.0
2017-Mar-27 13:32N 44°23' E 008°51'0 0.0
2017-Mar-27 12:32N 44°23' E 008°51'0 0.0
2017-Mar-27 11:32N 44°23' E 008°51'0 0.0
2017-Mar-27 10:33N 44°23' E 008°51'0 0.0
2017-Mar-27 09:33N 44°23' E 008°51'0 0.0
2017-Mar-27 08:33N 44°23' E 008°51'0 0.0
2017-Mar-27 07:34N 44°23' E 008°51'0 0.0
2017-Mar-27 06:34N 44°23' E 008°51'0 0.0
2017-Mar-27 05:33N 44°23' E 008°51'0 0.0
2017-Mar-27 04:34N 44°23' E 008°51'0 0.0
2017-Mar-27 03:34N 44°23' E 008°51'0 0.0
2017-Mar-27 02:34N 44°23' E 008°51'0 0.0
2017-Mar-27 01:34N 44°23' E 008°51'0 0.0
2017-Mar-27 00:34N 44°23' E 008°51'0 0.0
2017-Mar-26 23:33N 44°23' E 008°51'2 2.3
2017-Mar-26 22:34N 44°21' E 008°51'1110.8
2017-Mar-26 21:33N 44°10' E 008°52'1313.0
2017-Mar-26 20:33N 43°58' E 008°57'1312.7
2017-Mar-26 19:34N 43°46' E 009°03'1212.4
2017-Mar-26 18:34N 43°36' E 009°13'1212.3
2017-Mar-26 17:34N 43°25' E 009°22'1211.8
2017-Mar-26 16:34N 43°15' E 009°30'1211.6
2017-Mar-26 15:33N 43°05' E 009°38'2512.4
2017-Mar-26 13:31N 42°41' E 009°48'25412.1
2017-Mar-25 16:29N 39°41' E 013°47'1612.2
2017-Mar-25 15:10N 39°31' E 014°03'7612.6
2017-Mar-25 09:04N 38°39' E 015°16'712.2
2017-Mar-25 08:32N 38°35' E 015°22'1212.6
2017-Mar-25 07:33N 38°27' E 015°34'1211.8
2017-Mar-25 06:33N 38°16' E 015°42'10 9.7
2017-Mar-25 05:34N 38°08' E 015°36'1211.6
2017-Mar-25 04:33N 37°56' E 015°35'1010.4
2017-Mar-25 03:33N 37°49' E 015°45'1212.5
2017-Mar-25 02:33N 37°46' E 016°01'1312.5
2017-Mar-25 01:29N 37°42' E 016°17'8612.3
2017-Mar-24 18:28N 37°19' E 018°02'27110.1
2017-Mar-23 15:33N 37°33' E 023°42'1212.0
2017-Mar-23 14:34N 37°45' E 023°39'1111.0
2017-Mar-23 13:34N 37°50' E 023°27'1312.5
2017-Mar-23 12:33N 37°53' E 023°11'5 0.1
2017-Mar-21 23:23N 37°55' E 023°05'1 1.2
2017-Mar-21 22:33N 37°54' E 023°04'0 0.0
2017-Mar-21 21:28N 37°54' E 023°04'0 0.0
2017-Mar-21 18:31N 37°54' E 023°04'0 0.0
2017-Mar-21 17:16N 37°54' E 023°04'0 0.0
2017-Mar-21 16:28N 37°54' E 023°04'0 0.0
2017-Mar-21 15:28N 37°54' E 023°04'0 0.0
2017-Mar-21 14:31N 37°54' E 023°04'0 0.0
2017-Mar-21 13:28N 37°54' E 023°04'0 0.0
2017-Mar-21 12:31N 37°54' E 023°04'0 0.0
2017-Mar-21 11:31N 37°54' E 023°04'0 0.0
2017-Mar-21 10:31N 37°54' E 023°04'0 0.0
2017-Mar-21 09:31N 37°54' E 023°04'0 0.0
2017-Mar-21 08:31N 37°54' E 023°04'0 0.2
2017-Mar-21 07:33N 37°54' E 023°04'0 0.0
2017-Mar-21 06:22N 37°54' E 023°04'0 0.1
2017-Mar-21 05:27N 37°54' E 023°04'0 0.0
2017-Mar-21 04:27N 37°54' E 023°04'0 0.0
2017-Mar-21 03:06N 37°54' E 023°04'0 0.0
2017-Mar-21 02:27N 37°54' E 023°04'0 0.0
2017-Mar-21 01:28N 37°54' E 023°04'0 0.0
2017-Mar-21 00:31N 37°54' E 023°04'0 0.0
2017-Mar-20 23:33N 37°54' E 023°04'0 0.0
2017-Mar-20 22:33N 37°54' E 023°04'0 0.0
2017-Mar-20 21:18N 37°54' E 023°04'0 0.1
2017-Mar-20 20:30N 37°54' E 023°04'0 0.0
2017-Mar-20 19:33N 37°54' E 023°04'0 0.1
2017-Mar-20 18:31N 37°54' E 023°04'0 0.0
2017-Mar-20 17:27N 37°54' E 023°04'0 0.1
2017-Mar-20 16:30N 37°54' E 023°04'0 0.1
2017-Mar-20 15:30N 37°54' E 023°04'0 0.1
2017-Mar-20 14:28N 37°54' E 023°04'0 0.0
2017-Mar-20 12:26N 37°54' E 023°04'0 0.0
2017-Mar-20 11:16N 37°54' E 023°04'0 0.0
2017-Mar-20 10:27N 37°54' E 023°04'0 0.0
2017-Mar-20 08:22N 37°54' E 023°04'0 0.0
2017-Mar-20 07:24N 37°54' E 023°04'0 0.0
2017-Mar-20 06:33N 37°54' E 023°04'0 0.0
2017-Mar-20 05:08N 37°54' E 023°04'0 0.1
2017-Mar-20 04:31N 37°54' E 023°04'0 0.0
2017-Mar-20 03:31N 37°54' E 023°04'0 0.1
2017-Mar-20 02:31N 37°54' E 023°04'0 0.0
2017-Mar-20 01:31N 37°54' E 023°04'0 0.1
2017-Mar-20 00:31N 37°54' E 023°04'0 0.1
2017-Mar-19 23:28N 37°54' E 023°04'0 0.1
2017-Mar-19 22:31N 37°54' E 023°04'0 0.0
2017-Mar-19 21:31N 37°54' E 023°04'0 0.0
2017-Mar-19 20:31N 37°54' E 023°04'0 0.0
2017-Mar-19 19:26N 37°54' E 023°04'0 0.1
2017-Mar-19 18:31N 37°54' E 023°04'0 0.1
2017-Mar-19 17:31N 37°54' E 023°04'0 0.0
2017-Mar-19 16:31N 37°54' E 023°04'0 0.0
2017-Mar-19 15:31N 37°54' E 023°04'0 0.0
2017-Mar-19 14:28N 37°54' E 023°04'0 0.1
2017-Mar-19 13:31N 37°54' E 023°04'0 0.0
2017-Mar-19 12:31N 37°54' E 023°04'0 0.0
2017-Mar-19 11:31N 37°54' E 023°04'0 0.0
2017-Mar-19 10:32N 37°54' E 023°04'0 0.0
2017-Mar-19 09:33N 37°54' E 023°04'0 0.0
2017-Mar-19 08:33N 37°54' E 023°04'0 0.0
2017-Mar-19 07:28N 37°54' E 023°04'0 0.1
2017-Mar-19 06:31N 37°54' E 023°04'0 0.0
2017-Mar-19 05:19N 37°54' E 023°04'0 0.1
2017-Mar-19 04:28N 37°54' E 023°04'0 0.0
2017-Mar-19 03:25N 37°54' E 023°04'0 0.0
2017-Mar-19 02:25N 37°54' E 023°04'0 0.0
2017-Mar-19 01:31N 37°54' E 023°04'0 0.0
2017-Mar-19 00:28N 37°54' E 023°04'0 0.0
2017-Mar-18 23:28N 37°54' E 023°04'0 0.0
2017-Mar-18 22:31N 37°54' E 023°04'0 0.0
2017-Mar-18 21:31N 37°54' E 023°04'0 0.0
2017-Mar-18 20:31N 37°54' E 023°04'0 0.1
2017-Mar-18 19:31N 37°54' E 023°04'0 0.1
2017-Mar-18 18:31N 37°54' E 023°04'0 0.0
2017-Mar-18 17:19N 37°54' E 023°04'0 0.0
2017-Mar-18 16:31N 37°54' E 023°04'0 0.0
2017-Mar-18 15:28N 37°54' E 023°04'0 0.0
2017-Mar-18 07:25N 37°54' E 023°04'0 0.0
2017-Mar-18 05:31N 37°54' E 023°04'0 0.0
2017-Mar-18 04:31N 37°54' E 023°04'  

Dump ship's entire track history